sensor_id;sensor_type;location;lat;lon;timestamp;temperature;humidity
71175;DHT22;58876;51.994;4.472;2022-11-13T00:03:33;10.16;81.00
71175;DHT22;58876;51.994;4.472;2022-11-13T00:06:03;10.13;80.90
71175;DHT22;58876;51.994;4.472;2022-11-13T00:08:28;10.06;80.81
71175;DHT22;58876;51.994;4.472;2022-11-13T00:11:02;10.02;80.99
71175;DHT22;58876;51.994;4.472;2022-11-13T00:13:27;10.06;81.33
71175;DHT22;58876;51.994;4.472;2022-11-13T00:16:02;10.10;81.45
71175;DHT22;58876;51.994;4.472;2022-11-13T00:18:28;10.12;81.47
71175;DHT22;58876;51.994;4.472;2022-11-13T00:20:56;10.13;81.40
71175;DHT22;58876;51.994;4.472;2022-11-13T00:23:21;10.14;81.45
71175;DHT22;58876;51.994;4.472;2022-11-13T00:25:47;10.05;81.51
71175;DHT22;58876;51.994;4.472;2022-11-13T00:28:12;10.13;81.80
71175;DHT22;58876;51.994;4.472;2022-11-13T00:30:38;10.12;81.61
71175;DHT22;58876;51.994;4.472;2022-11-13T00:33:03;10.02;81.45
71175;DHT22;58876;51.994;4.472;2022-11-13T00:35:31;9.99;81.55
71175;DHT22;58876;51.994;4.472;2022-11-13T00:37:56;9.92;81.42
71175;DHT22;58876;51.994;4.472;2022-11-13T00:40:21;9.92;81.47
71175;DHT22;58876;51.994;4.472;2022-11-13T00:42:47;9.92;81.23
71175;DHT22;58876;51.994;4.472;2022-11-13T00:45:12;9.95;81.41
71175;DHT22;58876;51.994;4.472;2022-11-13T00:47:38;9.93;81.43
71175;DHT22;58876;51.994;4.472;2022-11-13T00:50:04;9.98;81.79
71175;DHT22;58876;51.994;4.472;2022-11-13T00:52:29;10.05;81.67
71175;DHT22;58876;51.994;4.472;2022-11-13T00:54:55;10.03;82.06
71175;DHT22;58876;51.994;4.472;2022-11-13T00:57:20;10.02;82.05
71175;DHT22;58876;51.994;4.472;2022-11-13T00:59:46;9.96;81.97
71175;DHT22;58876;51.994;4.472;2022-11-13T01:02:11;9.98;81.77
71175;DHT22;58876;51.994;4.472;2022-11-13T01:04:40;9.95;81.97
71175;DHT22;58876;51.994;4.472;2022-11-13T01:07:06;9.98;81.77
71175;DHT22;58876;51.994;4.472;2022-11-13T01:09:31;9.98;81.70
71175;DHT22;58876;51.994;4.472;2022-11-13T01:11:56;9.91;81.87
71175;DHT22;58876;51.994;4.472;2022-11-13T01:14:22;9.89;81.85
71175;DHT22;58876;51.994;4.472;2022-11-13T01:16:47;9.86;81.86
71175;DHT22;58876;51.994;4.472;2022-11-13T01:19:13;9.86;81.84
71175;DHT22;58876;51.994;4.472;2022-11-13T01:21:38;9.82;81.63
71175;DHT22;58876;51.994;4.472;2022-11-13T01:24:04;9.82;81.75
71175;DHT22;58876;51.994;4.472;2022-11-13T01:26:30;9.79;81.58
71175;DHT22;58876;51.994;4.472;2022-11-13T01:28:57;9.81;81.33
71175;DHT22;58876;51.994;4.472;2022-11-13T01:31:26;9.70;80.96
71175;DHT22;58876;51.994;4.472;2022-11-13T01:33:52;9.64;81.01
71175;DHT22;58876;51.994;4.472;2022-11-13T01:36:23;9.62;81.22
71175;DHT22;58876;51.994;4.472;2022-11-13T01:38:49;9.55;81.30
71175;DHT22;58876;51.994;4.472;2022-11-13T01:41:35;9.54;81.21
71175;DHT22;58876;51.994;4.472;2022-11-13T01:44:01;9.52;81.43
71175;DHT22;58876;51.994;4.472;2022-11-13T01:51:44;9.44;81.22
71175;DHT22;58876;51.994;4.472;2022-11-13T01:54:17;9.44;81.28
71175;DHT22;58876;51.994;4.472;2022-11-13T01:56:43;9.43;81.13
71175;DHT22;58876;51.994;4.472;2022-11-13T01:59:16;9.33;81.42
71175;DHT22;58876;51.994;4.472;2022-11-13T02:01:43;9.33;81.25
71175;DHT22;58876;51.994;4.472;2022-11-13T02:04:08;9.27;81.06
71175;DHT22;58876;51.994;4.472;2022-11-13T02:06:56;9.31;80.99
71175;DHT22;58876;51.994;4.472;2022-11-13T02:09:33;9.33;81.19
71175;DHT22;58876;51.994;4.472;2022-11-13T02:12:00;9.35;81.27
71175;DHT22;58876;51.994;4.472;2022-11-13T02:14:27;9.33;81.17
71175;DHT22;58876;51.994;4.472;2022-11-13T02:17:01;9.26;81.03
71175;DHT22;58876;51.994;4.472;2022-11-13T02:19:36;9.30;81.36
71175;DHT22;58876;51.994;4.472;2022-11-13T02:22:14;9.40;81.40
71175;DHT22;58876;51.994;4.472;2022-11-13T02:24:43;9.30;81.42
71175;DHT22;58876;51.994;4.472;2022-11-13T02:29:50;9.20;81.24
71175;DHT22;58876;51.994;4.472;2022-11-13T02:32:16;9.14;81.22
71175;DHT22;58876;51.994;4.472;2022-11-13T02:34:41;9.17;81.64
71175;DHT22;58876;51.994;4.472;2022-11-13T02:37:07;9.22;81.31
71175;DHT22;58876;51.994;4.472;2022-11-13T02:39:32;9.20;81.45
71175;DHT22;58876;51.994;4.472;2022-11-13T02:41:58;9.19;81.38
71175;DHT22;58876;51.994;4.472;2022-11-13T02:44:23;9.16;81.33
71175;DHT22;58876;51.994;4.472;2022-11-13T02:46:49;9.09;81.48
71175;DHT22;58876;51.994;4.472;2022-11-13T02:49:14;9.09;81.53
71175;DHT22;58876;51.994;4.472;2022-11-13T02:51:39;9.07;81.53
71175;DHT22;58876;51.994;4.472;2022-11-13T02:54:05;9.12;81.83
71175;DHT22;58876;51.994;4.472;2022-11-13T02:56:30;9.14;81.59
71175;DHT22;58876;51.994;4.472;2022-11-13T02:58:56;9.17;81.62
71175;DHT22;58876;51.994;4.472;2022-11-13T03:01:21;9.12;81.71
71175;DHT22;58876;51.994;4.472;2022-11-13T03:03:47;9.14;81.85
71175;DHT22;58876;51.994;4.472;2022-11-13T03:06:12;9.20;81.84
71175;DHT22;58876;51.994;4.472;2022-11-13T03:08:38;9.23;81.85
71175;DHT22;58876;51.994;4.472;2022-11-13T03:11:08;9.28;81.59
71175;DHT22;58876;51.994;4.472;2022-11-13T03:13:34;9.27;81.81
71175;DHT22;58876;51.994;4.472;2022-11-13T03:16:11;9.27;81.68
71175;DHT22;58876;51.994;4.472;2022-11-13T03:18:38;9.30;81.58
71175;DHT22;58876;51.994;4.472;2022-11-13T03:21:12;9.26;81.68
71175;DHT22;58876;51.994;4.472;2022-11-13T03:23:40;9.22;81.55
71175;DHT22;58876;51.994;4.472;2022-11-13T03:26:08;9.24;81.82
71175;DHT22;58876;51.994;4.472;2022-11-13T03:28:35;9.20;81.62
71175;DHT22;58876;51.994;4.472;2022-11-13T03:31:01;9.20;81.76
71175;DHT22;58876;51.994;4.472;2022-11-13T03:33:27;9.23;81.56
71175;DHT22;58876;51.994;4.472;2022-11-13T03:35:53;9.24;81.60
71175;DHT22;58876;51.994;4.472;2022-11-13T03:38:18;9.26;81.50
71175;DHT22;58876;51.994;4.472;2022-11-13T03:40:44;9.30;81.45
71175;DHT22;58876;51.994;4.472;2022-11-13T03:43:09;9.31;81.32
71175;DHT22;58876;51.994;4.472;2022-11-13T03:45:34;9.28;81.35
71175;DHT22;58876;51.994;4.472;2022-11-13T03:48:00;9.24;81.13
71175;DHT22;58876;51.994;4.472;2022-11-13T03:50:25;9.19;81.15
71175;DHT22;58876;51.994;4.472;2022-11-13T03:52:51;9.09;81.20
71175;DHT22;58876;51.994;4.472;2022-11-13T03:55:18;9.07;81.18
71175;DHT22;58876;51.994;4.472;2022-11-13T03:57:43;9.06;81.12
71175;DHT22;58876;51.994;4.472;2022-11-13T04:00:09;9.03;81.07
71175;DHT22;58876;51.994;4.472;2022-11-13T04:02:35;9.04;81.36
71175;DHT22;58876;51.994;4.472;2022-11-13T04:05:00;8.99;81.46
71175;DHT22;58876;51.994;4.472;2022-11-13T04:07:26;8.99;81.56
71175;DHT22;58876;51.994;4.472;2022-11-13T04:09:51;9.00;81.53
71175;DHT22;58876;51.994;4.472;2022-11-13T04:12:16;8.99;81.53
71175;DHT22;58876;51.994;4.472;2022-11-13T04:14:42;9.00;81.54
71175;DHT22;58876;51.994;4.472;2022-11-13T04:17:07;9.04;81.23
71175;DHT22;58876;51.994;4.472;2022-11-13T04:19:33;9.03;81.03
71175;DHT22;58876;51.994;4.472;2022-11-13T04:21:58;9.10;80.99
71175;DHT22;58876;51.994;4.472;2022-11-13T04:24:23;9.12;80.85
71175;DHT22;58876;51.994;4.472;2022-11-13T04:26:49;9.13;80.74
71175;DHT22;58876;51.994;4.472;2022-11-13T04:29:14;9.12;80.56
71175;DHT22;58876;51.994;4.472;2022-11-13T04:31:40;9.07;80.75
71175;DHT22;58876;51.994;4.472;2022-11-13T04:34:05;9.04;80.69
71175;DHT22;58876;51.994;4.472;2022-11-13T04:36:31;9.06;80.46
71175;DHT22;58876;51.994;4.472;2022-11-13T04:38:56;9.03;80.42
71175;DHT22;58876;51.994;4.472;2022-11-13T04:41:21;9.04;80.54
71175;DHT22;58876;51.994;4.472;2022-11-13T04:44:05;9.06;80.50
71175;DHT22;58876;51.994;4.472;2022-11-13T04:46:30;9.13;80.49
71175;DHT22;58876;51.994;4.472;2022-11-13T04:48:56;9.17;80.24
71175;DHT22;58876;51.994;4.472;2022-11-13T04:51:21;9.13;80.36
71175;DHT22;58876;51.994;4.472;2022-11-13T04:53:47;9.12;80.25
71175;DHT22;58876;51.994;4.472;2022-11-13T04:56:12;9.09;80.25
71175;DHT22;58876;51.994;4.472;2022-11-13T04:58:38;9.04;80.11
71175;DHT22;58876;51.994;4.472;2022-11-13T05:01:03;8.96;79.99
71175;DHT22;58876;51.994;4.472;2022-11-13T05:03:29;8.94;80.07
71175;DHT22;58876;51.994;4.472;2022-11-13T05:06:02;8.93;80.31
71175;DHT22;58876;51.994;4.472;2022-11-13T05:08:27;8.93;80.45
71175;DHT22;58876;51.994;4.472;2022-11-13T05:10:53;8.89;80.41
71175;DHT22;58876;51.994;4.472;2022-11-13T05:13:18;8.89;80.46
71175;DHT22;58876;51.994;4.472;2022-11-13T05:15:43;8.86;80.47
71175;DHT22;58876;51.994;4.472;2022-11-13T05:18:09;8.86;80.55
71175;DHT22;58876;51.994;4.472;2022-11-13T05:20:34;8.85;80.57
71175;DHT22;58876;51.994;4.472;2022-11-13T05:23:00;8.80;80.40
71175;DHT22;58876;51.994;4.472;2022-11-13T05:25:25;8.72;80.72
71175;DHT22;58876;51.994;4.472;2022-11-13T05:27:51;8.73;80.54
71175;DHT22;58876;51.994;4.472;2022-11-13T05:30:16;8.75;80.45
71175;DHT22;58876;51.994;4.472;2022-11-13T05:32:42;8.76;80.21
71175;DHT22;58876;51.994;4.472;2022-11-13T05:35:07;8.76;80.20
71175;DHT22;58876;51.994;4.472;2022-11-13T05:37:33;8.80;80.00
71175;DHT22;58876;51.994;4.472;2022-11-13T05:39:58;8.85;79.75
71175;DHT22;58876;51.994;4.472;2022-11-13T05:42:24;8.87;79.47
71175;DHT22;58876;51.994;4.472;2022-11-13T05:44:49;8.89;79.27
71175;DHT22;58876;51.994;4.472;2022-11-13T05:47:14;8.89;79.10
71175;DHT22;58876;51.994;4.472;2022-11-13T05:49:40;8.82;79.17
71175;DHT22;58876;51.994;4.472;2022-11-13T05:52:05;8.76;79.26
71175;DHT22;58876;51.994;4.472;2022-11-13T05:54:31;8.66;79.33
71175;DHT22;58876;51.994;4.472;2022-11-13T05:56:56;8.76;79.32
71175;DHT22;58876;51.994;4.472;2022-11-13T05:59:22;8.76;78.90
71175;DHT22;58876;51.994;4.472;2022-11-13T06:01:47;8.72;78.88
71175;DHT22;58876;51.994;4.472;2022-11-13T06:04:13;8.61;78.61
71175;DHT22;58876;51.994;4.472;2022-11-13T06:06:38;8.56;78.71
71175;DHT22;58876;51.994;4.472;2022-11-13T06:09:05;8.48;78.87
71175;DHT22;58876;51.994;4.472;2022-11-13T06:11:31;8.46;79.00
71175;DHT22;58876;51.994;4.472;2022-11-13T06:13:58;8.38;79.06
71175;DHT22;58876;51.994;4.472;2022-11-13T06:16:32;8.37;79.47
71175;DHT22;58876;51.994;4.472;2022-11-13T06:19:00;8.35;79.73
71175;DHT22;58876;51.994;4.472;2022-11-13T06:21:30;8.40;79.86
71175;DHT22;58876;51.994;4.472;2022-11-13T06:23:57;8.45;79.83
71175;DHT22;58876;51.994;4.472;2022-11-13T06:26:26;8.42;79.65
71175;DHT22;58876;51.994;4.472;2022-11-13T06:28:52;8.38;79.49
71175;DHT22;58876;51.994;4.472;2022-11-13T06:31:21;8.37;79.26
71175;DHT22;58876;51.994;4.472;2022-11-13T06:33:48;8.25;79.42
71175;DHT22;58876;51.994;4.472;2022-11-13T06:36:19;8.24;79.54
71175;DHT22;58876;51.994;4.472;2022-11-13T06:38:45;8.24;79.62
71175;DHT22;58876;51.994;4.472;2022-11-13T06:41:13;8.24;79.79
71175;DHT22;58876;51.994;4.472;2022-11-13T06:43:39;8.28;79.96
71175;DHT22;58876;51.994;4.472;2022-11-13T06:46:10;8.33;80.07
71175;DHT22;58876;51.994;4.472;2022-11-13T06:48:36;8.40;80.03
71175;DHT22;58876;51.994;4.472;2022-11-13T06:51:08;8.42;80.00
71175;DHT22;58876;51.994;4.472;2022-11-13T06:53:34;8.51;79.89
71175;DHT22;58876;51.994;4.472;2022-11-13T06:56:00;8.51;79.63
71175;DHT22;58876;51.994;4.472;2022-11-13T06:58:25;8.49;79.64
71175;DHT22;58876;51.994;4.472;2022-11-13T07:00:52;8.52;79.44
71175;DHT22;58876;51.994;4.472;2022-11-13T07:03:23;8.49;79.43
71175;DHT22;58876;51.994;4.472;2022-11-13T07:05:49;8.49;79.46
71175;DHT22;58876;51.994;4.472;2022-11-13T07:08:16;8.55;79.45
71175;DHT22;58876;51.994;4.472;2022-11-13T07:10:42;8.54;79.53
71175;DHT22;58876;51.994;4.472;2022-11-13T07:13:09;8.55;79.24
71175;DHT22;58876;51.994;4.472;2022-11-13T07:15:39;8.61;79.13
71175;DHT22;58876;51.994;4.472;2022-11-13T07:18:06;8.68;79.00
71175;DHT22;58876;51.994;4.472;2022-11-13T07:20:32;8.75;78.58
71175;DHT22;58876;51.994;4.472;2022-11-13T07:22:59;8.76;78.50
71175;DHT22;58876;51.994;4.472;2022-11-13T07:25:26;8.83;78.44
71175;DHT22;58876;51.994;4.472;2022-11-13T07:27:52;8.83;78.22
71175;DHT22;58876;51.994;4.472;2022-11-13T07:30:18;8.92;78.09
71175;DHT22;58876;51.994;4.472;2022-11-13T07:32:44;8.93;77.98
71175;DHT22;58876;51.994;4.472;2022-11-13T07:35:10;9.06;77.74
71175;DHT22;58876;51.994;4.472;2022-11-13T07:37:36;9.22;77.09
71175;DHT22;58876;51.994;4.472;2022-11-13T07:40:03;9.40;76.57
71175;DHT22;58876;51.994;4.472;2022-11-13T07:42:28;9.57;76.06
71175;DHT22;58876;51.994;4.472;2022-11-13T07:44:54;9.72;75.47
71175;DHT22;58876;51.994;4.472;2022-11-13T07:47:19;9.78;75.28
71175;DHT22;58876;51.994;4.472;2022-11-13T07:49:45;9.91;74.79
71175;DHT22;58876;51.994;4.472;2022-11-13T07:52:10;9.91;74.93
71175;DHT22;58876;51.994;4.472;2022-11-13T07:54:36;9.91;75.18
71175;DHT22;58876;51.994;4.472;2022-11-13T07:57:01;9.93;75.31
71175;DHT22;58876;51.994;4.472;2022-11-13T07:59:26;10.09;74.48
71175;DHT22;58876;51.994;4.472;2022-11-13T08:01:52;10.16;74.18
71175;DHT22;58876;51.994;4.472;2022-11-13T08:04:17;10.20;74.19
71175;DHT22;58876;51.994;4.472;2022-11-13T08:06:43;10.22;74.31
71175;DHT22;58876;51.994;4.472;2022-11-13T08:09:08;10.32;73.68
71175;DHT22;58876;51.994;4.472;2022-11-13T08:11:34;10.44;73.09
71175;DHT22;58876;51.994;4.472;2022-11-13T08:14:00;10.50;72.74
71175;DHT22;58876;51.994;4.472;2022-11-13T08:16:26;10.59;72.50
71175;DHT22;58876;51.994;4.472;2022-11-13T08:18:51;10.65;71.77
71175;DHT22;58876;51.994;4.472;2022-11-13T08:21:18;10.74;71.82
71175;DHT22;58876;51.994;4.472;2022-11-13T08:23:46;10.85;71.17
71175;DHT22;58876;51.994;4.472;2022-11-13T08:26:12;10.94;70.64
71175;DHT22;58876;51.994;4.472;2022-11-13T08:28:38;11.07;71.00
71175;DHT22;58876;51.994;4.472;2022-11-13T08:31:09;11.16;70.04
71175;DHT22;58876;51.994;4.472;2022-11-13T08:33:35;11.23;69.85
71175;DHT22;58876;51.994;4.472;2022-11-13T08:36:01;11.23;69.97
71175;DHT22;58876;51.994;4.472;2022-11-13T08:38:27;11.28;68.98
71175;DHT22;58876;51.994;4.472;2022-11-13T08:40:59;11.38;69.32
71175;DHT22;58876;51.994;4.472;2022-11-13T08:43:24;11.44;69.66
71175;DHT22;58876;51.994;4.472;2022-11-13T08:45:50;11.39;68.72
71175;DHT22;58876;51.994;4.472;2022-11-13T08:48:16;11.40;69.54
71175;DHT22;58876;51.994;4.472;2022-11-13T08:50:42;11.42;69.57
71175;DHT22;58876;51.994;4.472;2022-11-13T08:53:07;11.59;69.67
71175;DHT22;58876;51.994;4.472;2022-11-13T08:55:34;11.66;68.78
71175;DHT22;58876;51.994;4.472;2022-11-13T08:58:01;11.74;68.21
71175;DHT22;58876;51.994;4.472;2022-11-13T09:00:31;11.81;68.73
71175;DHT22;58876;51.994;4.472;2022-11-13T09:02:58;11.80;67.80
71175;DHT22;58876;51.994;4.472;2022-11-13T09:05:25;11.83;68.25
71175;DHT22;58876;51.994;4.472;2022-11-13T09:07:54;11.73;68.53
71175;DHT22;58876;51.994;4.472;2022-11-13T09:10:20;11.83;68.78
71175;DHT22;58876;51.994;4.472;2022-11-13T09:12:46;11.84;68.37
71175;DHT22;58876;51.994;4.472;2022-11-13T09:15:11;11.95;68.13
71175;DHT22;58876;51.994;4.472;2022-11-13T09:17:37;12.00;67.57
71175;DHT22;58876;51.994;4.472;2022-11-13T09:20:04;12.08;67.53
71175;DHT22;58876;51.994;4.472;2022-11-13T09:22:31;12.18;67.61
71175;DHT22;58876;51.994;4.472;2022-11-13T09:24:57;12.31;67.36
71175;DHT22;58876;51.994;4.472;2022-11-13T09:27:22;12.39;67.26
71175;DHT22;58876;51.994;4.472;2022-11-13T09:29:48;12.50;67.69
71175;DHT22;58876;51.994;4.472;2022-11-13T09:32:14;12.59;66.23
71175;DHT22;58876;51.994;4.472;2022-11-13T09:34:40;12.62;67.20
71175;DHT22;58876;51.994;4.472;2022-11-13T09:37:05;12.68;66.23
71175;DHT22;58876;51.994;4.472;2022-11-13T09:39:31;12.79;66.79
71175;DHT22;58876;51.994;4.472;2022-11-13T09:42:13;12.79;66.20
71175;DHT22;58876;51.994;4.472;2022-11-13T09:44:45;12.90;66.93
71175;DHT22;58876;51.994;4.472;2022-11-13T09:52:31;13.18;65.85
71175;DHT22;58876;51.994;4.472;2022-11-13T09:54:57;13.34;65.35
71175;DHT22;58876;51.994;4.472;2022-11-13T10:00:18;13.57;64.11
71175;DHT22;58876;51.994;4.472;2022-11-13T10:03:18;13.64;64.75
71175;DHT22;58876;51.994;4.472;2022-11-13T10:08:42;13.85;65.39
71175;DHT22;58876;51.994;4.472;2022-11-13T10:11:35;13.95;64.41
71175;DHT22;58876;51.994;4.472;2022-11-13T10:14:28;13.88;64.62
71175;DHT22;58876;51.994;4.472;2022-11-13T10:17:10;13.98;64.95
71175;DHT22;58876;51.994;4.472;2022-11-13T10:22:49;14.15;63.50
71175;DHT22;58876;51.994;4.472;2022-11-13T10:25:21;14.30;63.50
71175;DHT22;58876;51.994;4.472;2022-11-13T10:28:00;14.27;62.78
71175;DHT22;58876;51.994;4.472;2022-11-13T10:30:27;14.26;62.84
71175;DHT22;58876;51.994;4.472;2022-11-13T10:33:02;14.20;63.18
71175;DHT22;58876;51.994;4.472;2022-11-13T10:35:53;14.26;63.85
71175;DHT22;58876;51.994;4.472;2022-11-13T10:41:17;14.68;61.60
71175;DHT22;58876;51.994;4.472;2022-11-13T10:46:28;14.81;61.78
71175;DHT22;58876;51.994;4.472;2022-11-13T10:48:55;14.87;61.62
71175;DHT22;58876;51.994;4.472;2022-11-13T10:51:25;14.91;61.71
71175;DHT22;58876;51.994;4.472;2022-11-13T10:53:52;14.95;61.43
71175;DHT22;58876;51.994;4.472;2022-11-13T10:56:35;15.01;61.36
71175;DHT22;58876;51.994;4.472;2022-11-13T10:59:14;15.08;61.83
71175;DHT22;58876;51.994;4.472;2022-11-13T11:01:41;15.16;61.59
71175;DHT22;58876;51.994;4.472;2022-11-13T11:04:13;15.38;60.55
71175;DHT22;58876;51.994;4.472;2022-11-13T11:06:40;15.46;59.97
71175;DHT22;58876;51.994;4.472;2022-11-13T11:09:21;15.43;60.14
71175;DHT22;58876;51.994;4.472;2022-11-13T11:12:10;15.56;59.37
71175;DHT22;58876;51.994;4.472;2022-11-13T11:17:37;15.69;60.00
71175;DHT22;58876;51.994;4.472;2022-11-13T11:20:08;15.71;59.81
71175;DHT22;58876;51.994;4.472;2022-11-13T11:22:38;15.86;59.86
71175;DHT22;58876;51.994;4.472;2022-11-13T11:25:21;16.14;58.76
71175;DHT22;58876;51.994;4.472;2022-11-13T11:28:05;16.45;57.24
71175;DHT22;58876;51.994;4.472;2022-11-13T11:30:41;16.29;58.94
71175;DHT22;58876;51.994;4.472;2022-11-13T11:33:24;16.32;59.94
71175;DHT22;58876;51.994;4.472;2022-11-13T11:36:05;16.25;58.85
71175;DHT22;58876;51.994;4.472;2022-11-13T11:38:51;16.13;58.48
71175;DHT22;58876;51.994;4.472;2022-11-13T11:41:24;16.10;59.89
71175;DHT22;58876;51.994;4.472;2022-11-13T11:44:07;16.25;59.42
71175;DHT22;58876;51.994;4.472;2022-11-13T11:46:36;16.47;58.22
71175;DHT22;58876;51.994;4.472;2022-11-13T11:49:02;16.53;58.53
71175;DHT22;58876;51.994;4.472;2022-11-13T11:51:50;16.52;58.23
71175;DHT22;58876;51.994;4.472;2022-11-13T11:59:46;16.73;57.68
71175;DHT22;58876;51.994;4.472;2022-11-13T12:15:46;16.35;58.81
71175;DHT22;58876;51.994;4.472;2022-11-13T12:21:31;16.36;60.19
71175;DHT22;58876;51.994;4.472;2022-11-13T12:26:52;16.48;57.56
71175;DHT22;58876;51.994;4.472;2022-11-13T12:30:11;16.59;59.71
71175;DHT22;58876;51.994;4.472;2022-11-13T12:35:12;16.83;58.21
71175;DHT22;58876;51.994;4.472;2022-11-13T12:37:54;16.90;58.17
71175;DHT22;58876;51.994;4.472;2022-11-13T12:50:54;17.45;57.76
71175;DHT22;58876;51.994;4.472;2022-11-13T12:53:26;17.58;56.44
71175;DHT22;58876;51.994;4.472;2022-11-13T12:56:01;17.72;57.12
71175;DHT22;58876;51.994;4.472;2022-11-13T12:58:29;17.83;55.42
71175;DHT22;58876;51.994;4.472;2022-11-13T13:01:12;17.88;55.90
71175;DHT22;58876;51.994;4.472;2022-11-13T13:06:46;17.93;56.93
71175;DHT22;58876;51.994;4.472;2022-11-13T13:14:43;17.61;56.81
71175;DHT22;58876;51.994;4.472;2022-11-13T13:17:20;17.58;55.21
71175;DHT22;58876;51.994;4.472;2022-11-13T13:20:00;17.62;54.26
71175;DHT22;58876;51.994;4.472;2022-11-13T13:22:32;17.52;56.10
71175;DHT22;58876;51.994;4.472;2022-11-13T13:25:04;17.57;56.33
71175;DHT22;58876;51.994;4.472;2022-11-13T13:27:38;17.62;55.41
71175;DHT22;58876;51.994;4.472;2022-11-13T13:30:19;17.38;53.62
71175;DHT22;58876;51.994;4.472;2022-11-13T13:38:15;17.20;56.96
71175;DHT22;58876;51.994;4.472;2022-11-13T13:41:04;17.27;55.55
71175;DHT22;58876;51.994;4.472;2022-11-13T13:43:54;17.23;56.44
71175;DHT22;58876;51.994;4.472;2022-11-13T13:46:28;17.14;56.65
71175;DHT22;58876;51.994;4.472;2022-11-13T13:49:11;17.23;56.21
71175;DHT22;58876;51.994;4.472;2022-11-13T13:51:45;17.21;55.78
71175;DHT22;58876;51.994;4.472;2022-11-13T13:54:26;17.38;55.80
71175;DHT22;58876;51.994;4.472;2022-11-13T13:56:55;17.74;53.42
71175;DHT22;58876;51.994;4.472;2022-11-13T13:59:41;18.32;52.71
71175;DHT22;58876;51.994;4.472;2022-11-13T14:02:19;18.60;51.29
71175;DHT22;58876;51.994;4.472;2022-11-13T14:04:47;18.70;50.81
71175;DHT22;58876;51.994;4.472;2022-11-13T14:07:19;18.77;50.58
71175;DHT22;58876;51.994;4.472;2022-11-13T14:09:45;18.65;50.94
71175;DHT22;58876;51.994;4.472;2022-11-13T14:12:19;18.33;51.87
71175;DHT22;58876;51.994;4.472;2022-11-13T14:14:45;17.88;51.89
71175;DHT22;58876;51.994;4.472;2022-11-13T14:17:11;17.74;55.19
71175;DHT22;58876;51.994;4.472;2022-11-13T14:19:54;18.08;52.40
71175;DHT22;58876;51.994;4.472;2022-11-13T14:22:20;18.57;51.25
71175;DHT22;58876;51.994;4.472;2022-11-13T14:24:53;18.78;49.77
71175;DHT22;58876;51.994;4.472;2022-11-13T14:27:24;18.91;49.72
71175;DHT22;58876;51.994;4.472;2022-11-13T14:29:55;18.92;50.09
71175;DHT22;58876;51.994;4.472;2022-11-13T14:32:28;19.02;50.14
71175;DHT22;58876;51.994;4.472;2022-11-13T14:34:58;18.80;50.83
71175;DHT22;58876;51.994;4.472;2022-11-13T14:37:37;18.29;51.36
71175;DHT22;58876;51.994;4.472;2022-11-13T14:40:32;17.93;53.39
71175;DHT22;58876;51.994;4.472;2022-11-13T14:43:04;17.58;54.37
71175;DHT22;58876;51.994;4.472;2022-11-13T14:45:33;17.37;54.78
71175;DHT22;58876;51.994;4.472;2022-11-13T14:48:01;17.17;55.63
71175;DHT22;58876;51.994;4.472;2022-11-13T14:50:30;17.02;56.53
71175;DHT22;58876;51.994;4.472;2022-11-13T14:53:05;16.86;56.48
71175;DHT22;58876;51.994;4.472;2022-11-13T14:55:35;16.72;56.11
71175;DHT22;58876;51.994;4.472;2022-11-13T14:58:01;16.62;56.24
71175;DHT22;58876;51.994;4.472;2022-11-13T15:00:28;16.58;56.06
71175;DHT22;58876;51.994;4.472;2022-11-13T15:02:54;16.49;56.34
71175;DHT22;58876;51.994;4.472;2022-11-13T15:05:19;16.41;56.50
71175;DHT22;58876;51.994;4.472;2022-11-13T15:07:45;16.34;56.32
71175;DHT22;58876;51.994;4.472;2022-11-13T15:10:15;16.29;57.41
71175;DHT22;58876;51.994;4.472;2022-11-13T15:12:40;16.15;58.02
71175;DHT22;58876;51.994;4.472;2022-11-13T15:15:12;16.07;58.30
71175;DHT22;58876;51.994;4.472;2022-11-13T15:17:38;16.00;59.01
71175;DHT22;58876;51.994;4.472;2022-11-13T15:20:05;15.90;59.31
71175;DHT22;58876;51.994;4.472;2022-11-13T15:22:30;15.77;60.31
71175;DHT22;58876;51.994;4.472;2022-11-13T15:24:56;15.67;60.36
71175;DHT22;58876;51.994;4.472;2022-11-13T15:27:22;15.56;61.09
71175;DHT22;58876;51.994;4.472;2022-11-13T15:29:47;15.46;61.36
71175;DHT22;58876;51.994;4.472;2022-11-13T15:32:14;15.32;62.10
71175;DHT22;58876;51.994;4.472;2022-11-13T15:34:40;15.25;62.19
71175;DHT22;58876;51.994;4.472;2022-11-13T15:37:14;15.15;62.13
71175;DHT22;58876;51.994;4.472;2022-11-13T15:39:40;15.15;62.20
71175;DHT22;58876;51.994;4.472;2022-11-13T15:42:13;14.98;62.96
71175;DHT22;58876;51.994;4.472;2022-11-13T15:44:39;14.87;63.06
71175;DHT22;58876;51.994;4.472;2022-11-13T15:47:27;14.65;63.68
71175;DHT22;58876;51.994;4.472;2022-11-13T15:49:53;14.50;64.41
71175;DHT22;58876;51.994;4.472;2022-11-13T15:52:20;14.41;64.81
71175;DHT22;58876;51.994;4.472;2022-11-13T15:54:47;14.27;65.17
71175;DHT22;58876;51.994;4.472;2022-11-13T15:57:24;14.19;65.16
71175;DHT22;58876;51.994;4.472;2022-11-13T15:59:50;14.04;65.29
71175;DHT22;58876;51.994;4.472;2022-11-13T16:02:15;13.88;65.94
71175;DHT22;58876;51.994;4.472;2022-11-13T16:04:41;13.79;66.11
71175;DHT22;58876;51.994;4.472;2022-11-13T16:07:16;13.67;66.69
71175;DHT22;58876;51.994;4.472;2022-11-13T16:09:43;13.53;66.79
71175;DHT22;58876;51.994;4.472;2022-11-13T16:12:12;13.46;67.15
71175;DHT22;58876;51.994;4.472;2022-11-13T16:14:38;13.36;67.69
71175;DHT22;58876;51.994;4.472;2022-11-13T16:17:16;13.24;68.08
71175;DHT22;58876;51.994;4.472;2022-11-13T16:19:48;13.16;68.42
71175;DHT22;58876;51.994;4.472;2022-11-13T16:22:21;12.96;68.77
71175;DHT22;58876;51.994;4.472;2022-11-13T16:24:46;12.93;69.17
71175;DHT22;58876;51.994;4.472;2022-11-13T16:27:15;12.87;69.44
71175;DHT22;58876;51.994;4.472;2022-11-13T16:29:42;12.79;69.56
71175;DHT22;58876;51.994;4.472;2022-11-13T16:32:13;12.69;69.59
71175;DHT22;58876;51.994;4.472;2022-11-13T16:34:40;12.58;69.83
71175;DHT22;58876;51.994;4.472;2022-11-13T16:37:12;12.50;70.46
71175;DHT22;58876;51.994;4.472;2022-11-13T16:39:38;12.52;70.64
71175;DHT22;58876;51.994;4.472;2022-11-13T16:42:03;12.48;70.79
71175;DHT22;58876;51.994;4.472;2022-11-13T16:44:29;12.46;70.88
71175;DHT22;58876;51.994;4.472;2022-11-13T16:46:54;12.38;70.88
71175;DHT22;58876;51.994;4.472;2022-11-13T16:49:20;12.31;70.84
71175;DHT22;58876;51.994;4.472;2022-11-13T16:51:45;12.28;71.18
71175;DHT22;58876;51.994;4.472;2022-11-13T16:54:11;12.24;71.33
71175;DHT22;58876;51.994;4.472;2022-11-13T16:56:37;12.21;71.41
71175;DHT22;58876;51.994;4.472;2022-11-13T16:59:02;12.16;71.39
71175;DHT22;58876;51.994;4.472;2022-11-13T17:01:28;12.11;71.46
71175;DHT22;58876;51.994;4.472;2022-11-13T17:03:53;12.07;71.81
71175;DHT22;58876;51.994;4.472;2022-11-13T17:06:34;12.02;71.82
71175;DHT22;58876;51.994;4.472;2022-11-13T17:09:01;12.04;71.95
71175;DHT22;58876;51.994;4.472;2022-11-13T17:11:29;12.05;72.84
71175;DHT22;58876;51.994;4.472;2022-11-13T17:13:58;11.98;72.56